CheckWX is a tool to help pilots better visualize weather data.  It is not intended as a substitute for an official pre-flight weather briefing.

20:30:53 UTC

LKNA TAF
Náměšť Air Base Airport
Náměšť, Czech Republic
TAF LKNA 221700Z 2218/2318 VRB02KT CAVOK TEMPO 2218/2221 13006KT PROB30 TEMPO 2300/2307 4000 BR NSC TEMPO 2310/2318 18006KT

Mar-22@
18:00 UTC

Mar-22 @ 18:00 UTC

Mar-23@
18:00 UTC

Mar-23 @ 18:00 UTC

TAF LKNA 221700Z 2218/2318 VRB02KT CAVOK
Wind
  • Variable at 2 KTS
Conditions
No significant weather
Cloud Levels
  • No significant clouds

Mar-22@
18:00 UTC

Mar-22 @ 18:00 UTC

Mar-22@
21:00 UTC

Mar-22 @ 21:00 UTC

TEMPO 2218/2221 13006KT

Temporary

Temporary Changes expected for less than half the time period

Wind
  • 130° at 6 KTS

Mar-23@
00:00 UTC

Mar-23 @ 00:00 UTC

Mar-23@
07:00 UTC

Mar-23 @ 07:00 UTC

PROB30 TEMPO 2300/2307 4000 BR NSC

Temporary - 30% Likelihood

Temporary - 30% Likelihood during this time.

Conditions
Mist
Cloud Levels
  • No significant clouds

Mar-23@
10:00 UTC

Mar-23 @ 10:00 UTC

Mar-23@
18:00 UTC

Mar-23 @ 18:00 UTC

TEMPO 2310/2318 18006KT

Temporary

Temporary Changes expected for less than half the time period

Wind
  • 180° at 6 KTS